• Join FlightAware (Why Join?)
  • Login
  • US Flag 
01:45PM EST


 

Airport Tracker/Info


-or-


 

Live Flight TrackerFlight Track Log ✈ EJA881 ✈ 23-Jun-2013 ✈ KIND - KPDX

Flight Track Log - Related Links

Times and Time Zones

All times are in EDT time to prevent confusion due to time zone crossing. See the EJA881 flight status page for this flight to view local times or setup timezone preferences in your user account.

Time Position Orientation Groundspeed Altitude Reporting Facility
EDT Latitude Longitude Course Direction KTS MPH feet Rate Location/Type
01:02PM 39.7000 -86.3000 232° Southwest 171 197 1,400  Level Indianapolis TRACON
01:02PM 39.6717 -86.3467 232° Southwest 226 260 2,600 2,880 Climbing Indianapolis Center
01:03PM 39.7017 -86.4100 302° West 229 264 6,700 3,180 Climbing Indianapolis Center
01:04PM 39.7789 -86.4281 350° North 274 315 9,200 2,700 Climbing Indianapolis Center
01:05PM 39.8583 -86.4594 343° North 301 346 12,300 2,700 Climbing Indianapolis Center
01:06PM 39.9419 -86.4911 344° North 319 367 14,800 2,280 Climbing Indianapolis Center
01:07PM 39.9936 -86.6183 298° West 336 387 17,100 2,100 Climbing Indianapolis Center
01:09PM 40.0397 -86.7319 298° West 353 406 19,200 2,040 Climbing Indianapolis Center
01:10PM 40.0858 -86.8461 298° West 356 410 21,400 1,860 Climbing Indianapolis Center
01:11PM 40.1322 -86.9597 298° West 356 410 23,100 1,500 Climbing Indianapolis Center
01:12PM 40.1803 -87.0767 298° West 364 419 24,500 1,380 Climbing Indianapolis Center
01:12PM 40.2197 -87.1769 297° West 381 438 25,500 1,320 Climbing Chicago Center
01:13PM 40.2700 -87.3019 298° West 389 448 26,800 1,200 Climbing Chicago Center
01:14PM 40.3217 -87.4314 298° West 401 461 28,000 1,200 Climbing Chicago Center
01:15PM 40.3781 -87.5669 299° West 405 466 29,300 1,260 Climbing Chicago Center
01:16PM 40.4289 -87.6969 297° West 403 464 30,700 1,380 Climbing Chicago Center
01:17PM 40.4903 -87.8506 298° West 398 458 32,200 1,140 Climbing Chicago Center
01:19PM 40.5406 -87.9789 297° West 398 458 33,100 780 Climbing Chicago Center
01:20PM 40.5922 -88.1097 298° West 403 464 33,900 660 Climbing Chicago Center
01:21PM 40.6456 -88.2433 298° West 415 478 34,500 660 Climbing Chicago Center
01:22PM 40.6981 -88.3800 297° West 419 482 35,300 720 Climbing Chicago Center
01:23PM 40.7506 -88.5142 297° West 415 478 36,000 300 Climbing Chicago Center
01:24PM 40.8167 -88.6825 297° West 432 497 36,000  Level Chicago Center
01:25PM 40.8733 -88.8289 297° West 446 513 36,000  Level Chicago Center
01:26PM 40.9247 -88.9658 296° West 447 514 36,000  Level Chicago Center
01:27PM 40.9819 -89.1125 297° West 450 518 36,000  Level Chicago Center
01:28PM 41.0494 -89.2886 297° West 450 518 36,000  Level Chicago Center
01:29PM 41.1047 -89.4364 296° West 451 519 36,000  Level Chicago Center
01:30PM 41.1606 -89.5836 297° West 452 520 36,000  Level Chicago Center
01:31PM 41.2100 -89.7319 294° West 444 511 36,000  Level Chicago Center
01:32PM 41.2603 -89.8811 294° West 445 512 36,000  Level Chicago Center
01:33PM 41.3189 -90.0608 294° West 444 511 36,000  Level Chicago Center
01:34PM 41.3597 -90.2131 290° West 441 507 36,000  Level Chicago Center
01:35PM 41.4017 -90.3658 290° West 442 509 36,000  Level Chicago Center
01:36PM 41.4439 -90.5169 290° West 437 503 36,000  Level Chicago Center
01:37PM 41.4833 -90.6739 289° West 447 514 36,000  Level Chicago Center
01:38PM 41.5278 -90.8408 290° West 442 509 36,000  Level Chicago Center
01:39PM 41.5681 -90.9928 290° West 438 504 36,000  Level Chicago Center
01:40PM 41.6083 -91.1442 290° West 436 502 36,000  Level Chicago Center
01:41PM 41.6483 -91.2967 289° West 437 503 36,000  Level Chicago Center
01:42PM 41.6953 -91.4806 289° West 437 503 36,000  Level Chicago Center
01:43PM 41.7356 -91.6311 290° West 435 501 36,000  Level Chicago Center
01:44PM 41.7747 -91.7839 289° West 435 501 36,000  Level Chicago Center
01:45PM 41.8133 -91.9383 289° West 437 503 36,000  Level Chicago Center
01:46PM 41.8567 -92.1072 289° West 437 503 36,000  Level Chicago Center
01:47PM 41.8914 -92.2450 289° West 438 504 36,000  Level Chicago Center
01:48PM 41.9378 -92.4297 289° West 439 505 36,000 300 Level Chicago Center
01:50PM 41.9750 -92.5836 288° West 436 502 36,700 720 Climbing Chicago Center
01:51PM 42.0125 -92.7353 288° West 430 495 37,500 600 Climbing Minneapolis Center
01:52PM 42.0483 -92.8836 288° West 425 489 38,000 180 Climbing Minneapolis Center
01:53PM 42.0928 -93.0661 288° West 429 494 38,000  Level Minneapolis Center
01:54PM 42.1308 -93.2225 288° West 438 504 38,000  Level Minneapolis Center
01:55PM 42.1764 -93.4103 288° West 442 509 38,000  Level Minneapolis Center
01:56PM 42.2142 -93.5664 288° West 441 507 38,000  Level Minneapolis Center
01:57PM 42.2517 -93.7236 288° West 443 510 38,000  Level Minneapolis Center
01:58PM 42.2889 -93.8817 288° West 446 513 38,000  Level Minneapolis Center
01:59PM 42.3250 -94.0397 287° West 445 512 38,000  Level Minneapolis Center
02:00PM 42.3675 -94.2286 287° West 442 509 38,000  Level Minneapolis Center
02:01PM 42.4078 -94.3881 289° West 433 498 38,000  Level Minneapolis Center
02:02PM 42.4414 -94.5456 286° West 435 501 38,000  Level Minneapolis Center
02:03PM 42.4769 -94.7022 287° West 436 502 38,000  Level Minneapolis Center
02:04PM 42.5131 -94.8581 287° West 436 502 38,000 300 Level Minneapolis Center
02:05PM 42.5544 -95.0433 287° West 432 497 38,700 600 Climbing Minneapolis Center
02:06PM 42.5875 -95.1967 286° West 427 491 39,300 540 Climbing Minneapolis Center
02:07PM 42.6208 -95.3486 287° West 422 486 39,900 300 Climbing Minneapolis Center
02:08PM 42.6533 -95.4994 286° West 417 480 40,000  Climbing Minneapolis Center
02:09PM 42.6864 -95.6522 286° West 420 483 40,000  Level Minneapolis Center
02:10PM 42.7261 -95.8367 286° West 424 488 40,000  Level Minneapolis Center
02:11PM 42.7594 -95.9947 286° West 431 496 40,000  Level Minneapolis Center
02:12PM 42.7931 -96.1539 286° West 436 502 40,000  Level Minneapolis Center
02:13PM 42.8261 -96.3114 286° West 434 499 40,000  Level Minneapolis Center
02:15PM 42.8592 -96.4678 286° West 431 496 40,000  Level Minneapolis Center
02:16PM 42.8908 -96.6239 286° West 428 493 40,000  Level Minneapolis Center
02:17PM 42.9233 -96.7806 286° West 428 493 40,000  Level Minneapolis Center
02:18PM 42.9608 -96.9664 285° West 424 488 40,000  Level Minneapolis Center
02:19PM 42.9922 -97.1208 286° West 423 487 40,000  Level Minneapolis Center
02:20PM 43.0292 -97.3042 285° West 417 480 40,000  Level Minneapolis Center
02:21PM 43.0581 -97.4539 285° West 410 472 40,000  Level Minneapolis Center
02:22PM 43.0872 -97.6003 285° West 401 461 40,000  Level Minneapolis Center
02:23PM 43.1164 -97.7481 285° West 402 463 40,000  Level Minneapolis Center
02:24PM 43.1500 -97.9225 285° West 396 456 40,000  Level Minneapolis Center
02:25PM 43.1775 -98.0672 285° West 394 453 40,000  Level Minneapolis Center
02:26PM 43.2050 -98.2106 285° West 391 450 40,000  Level Minneapolis Center
02:27PM 43.2331 -98.3569 285° West 396 456 40,000  Level Minneapolis Center
02:28PM 43.2603 -98.5028 284° West 395 455 40,000  Level Minneapolis Center
02:29PM 43.2869 -98.6497 284° West 397 457 40,000  Level Minneapolis Center
02:30PM 43.3203 -98.8267 285° West 399 459 40,000  Level Minneapolis Center
02:31PM 43.3467 -98.9725 284° West 396 456 40,000  Level Minneapolis Center
02:32PM 43.3725 -99.1114 284° West 399 459 40,000  Level Minneapolis Center
02:33PM 43.3989 -99.2586 284° West 397 457 40,000  Level Minneapolis Center
02:34PM 43.4306 -99.4353 284° West 397 457 40,000  Level Minneapolis Center
02:35PM 43.4558 -99.5825 283° West 396 456 40,000  Level Minneapolis Center
02:36PM 43.4817 -99.7281 284° West 392 451 40,000  Level Minneapolis Center
02:37PM 43.5061 -99.8756 283° West 393 452 40,000  Level Minneapolis Center
02:39PM 43.5292 -100.0203 282° West 391 450 40,000  Level Minneapolis Center
02:40PM 43.5528 -100.1622 283° West 384 442 40,000  Level Minneapolis Center
02:41PM 43.5761 -100.3069 283° West 384 442 40,000  Level Minneapolis Center
02:42PM 43.6033 -100.4792 282° West 384 442 40,000  Level Minneapolis Center
02:43PM 43.6258 -100.6233 282° West 384 442 40,000  Level Minneapolis Center
02:44PM 43.6486 -100.7669 282° West 383 441 40,000  Level Minneapolis Center
02:45PM 43.6669 -100.8806 283° West 385 443 40,000  Level Denver Center
02:46PM 43.6936 -101.0556 282° West 387 445 40,000  Level Denver Center
02:47PM 43.7156 -101.1992 282° West 382 440 40,000  Level Denver Center
02:48PM 43.7369 -101.3414 282° West 379 436 40,000  Level Denver Center
02:49PM 43.7592 -101.4864 282° West 383 441 40,000  Level Denver Center
02:50PM 43.7794 -101.6272 281° West 374 430 40,000  Level Denver Center
02:51PM 43.8006 -101.7689 282° West 374 430 40,000  Level Denver Center
02:52PM 43.8211 -101.9106 281° West 374 430 40,000  Level Denver Center
02:53PM 43.8467 -102.0833 282° West 381 438 40,000  Level Denver Center
02:54PM 43.8678 -102.2319 281° West 380 437 40,000  Level Denver Center
02:55PM 43.8872 -102.3722 281° West 384 442 40,000  Level Denver Center
02:56PM 43.9075 -102.5189 281° West 386 444 40,000  Level Denver Center
02:57PM 43.9297 -102.6675 282° West 390 449 40,000  Level Denver Center
02:58PM 43.9483 -102.8125 280° West 386 444 40,000  Level Denver Center
02:59PM 43.9717 -102.9786 281° West 386 444 40,000  Level Denver Center
03:00PM 43.9936 -103.1194 282° West 388 447 40,000  Level Denver Center
03:01PM 44.0189 -103.2803 282° West 385 443 40,000  Level Denver Center
03:02PM 44.0411 -103.4192 283° West 384 442 40,000  Level Denver Center
03:03PM 44.0656 -103.5819 282° West 385 443 40,000  Level Denver Center
03:04PM 44.0883 -103.7208 283° West 385 443 40,000  Level Denver Center
03:05PM 44.1086 -103.8358 284° West 384 442 40,000  Level Denver Center
03:06PM 44.1414 -104.0181 284° West 382 440 40,000  Level Denver Center
03:07PM 44.1683 -104.1775 283° West 381 438 40,000  Level Denver Center
03:08PM 44.1925 -104.3144 284° West 381 438 40,000  Level Denver Center
03:09PM 44.2194 -104.4781 283° West 383 441 40,000  Level Denver Center
03:10PM 44.2428 -104.6172 283° West 385 443 40,000  Level Denver Center
03:11PM 44.2706 -104.7786 284° West 385 443 40,000  Level Denver Center
03:12PM 44.2861 -104.8717 283° West 386 444 40,000  Level Denver Center
03:14PM 44.3208 -105.0836 283° West 388 447 40,000  Level Denver Center
03:15PM 44.3444 -105.2256 283° West 390 449 40,000  Level Denver Center
03:16PM 44.3636 -105.3450 283° West 392 451 40,000  Level Denver Center
03:17PM 44.3933 -105.5336 282° West 392 451 40,000  Level Denver Center
03:18PM 44.4194 -105.6997 282° West 392 451 40,000  Level Denver Center
03:19PM 44.4417 -105.8417 282° West 392 451 40,000  Level Denver Center
03:20PM 44.4639 -105.9842 282° West 392 451 40,000  Level Denver Center
03:21PM 44.4892 -106.1494 282° West 391 450 40,000  Level Denver Center
03:22PM 44.5111 -106.2911 282° West 390 449 40,000  Level Denver Center
03:23PM 44.5361 -106.4564 282° West 390 449 40,000  Level Denver Center
03:24PM 44.5581 -106.5992 282° West 390 449 40,000  Level Denver Center
03:25PM 44.5828 -106.7672 282° West 392 451 40,000  Level Denver Center
03:26PM 44.6042 -106.9106 282° West 393 452 40,000  Level Denver Center
03:27PM 44.6392 -107.1511 282° West 392 451 40,000  Level Salt Lake Center
03:28PM 44.6606 -107.3025 281° West 395 455 40,000  Level Salt Lake Center
03:29PM 44.6814 -107.4469 282° West 395 455 40,000  Level Salt Lake Center
03:31PM 44.7056 -107.6167 281° West 397 457 40,000  Level Salt Lake Center
03:32PM 44.7253 -107.7633 281° West 399 459 40,000  Level Salt Lake Center
03:33PM 44.7478 -107.9344 281° West 400 460 40,000  Level Salt Lake Center
03:34PM 44.7678 -108.0800 281° West 398 458 40,100  Climbing Salt Lake Center
03:35PM 44.7897 -108.2514 280° West 398 458 40,000 -60 Descending Salt Lake Center
03:36PM 44.8097 -108.3981 281° West 399 459 40,000  Level Salt Lake Center
03:37PM 44.8319 -108.5692 280° West 399 459 40,000  Level Salt Lake Center
03:38PM 44.8517 -108.7142 281° West 397 457 40,000  Level Salt Lake Center
03:39PM 44.8694 -108.8586 280° West 394 453 40,000  Level Salt Lake Center
03:40PM 44.8889 -109.0250 279° West 388 447 40,000  Level Salt Lake Center
03:41PM 44.9086 -109.1675 281° West 386 444 40,000  Level Salt Lake Center
03:42PM 44.9297 -109.3342 280° West 389 448 40,000  Level Salt Lake Center
03:43PM 44.9469 -109.4789 280° West 390 449 40,000  Level Salt Lake Center
03:44PM 44.9669 -109.6456 280° West 388 447 40,000  Level Salt Lake Center
03:45PM 44.9842 -109.7883 280° West 386 444 40,000  Level Salt Lake Center
03:46PM 45.0042 -109.9569 280° West 390 449 40,000  Level Salt Lake Center
03:47PM 45.0208 -110.0992 279° West 387 445 40,000  Level Salt Lake Center
03:48PM 45.0394 -110.2669 279° West 387 445 40,000  Level Salt Lake Center
03:49PM 45.0567 -110.4131 280° West 392 451 40,000  Level Salt Lake Center
03:50PM 45.0753 -110.5792 279° West 388 447 40,000  Level Salt Lake Center
03:51PM 45.0911 -110.7236 279° West 388 447 40,000  Level Salt Lake Center
03:52PM 45.1097 -110.8925 279° West 390 449 40,000  Level Salt Lake Center
03:53PM 45.1242 -111.0222 279° West 388 447 40,000  Level Salt Lake Center
03:54PM 45.1439 -111.2039 279° West 387 445 40,000  Level Salt Lake Center
03:55PM 45.1600 -111.3558 279° West 389 448 40,000  Level Salt Lake Center
03:56PM 45.1753 -111.5083 278° West 389 448 40,000  Level Salt Lake Center
03:57PM 45.1914 -111.6617 279° West 391 450 40,000  Level Salt Lake Center
03:58PM 45.2069 -111.8139 278° West 389 448 40,000  Level Salt Lake Center
03:59PM 45.2222 -111.9689 278° West 393 452 40,000  Level Salt Lake Center
04:00PM 45.2406 -112.1447 278° West 391 450 40,000  Level Salt Lake Center
04:02PM 45.2542 -112.2925 278° West 392 451 40,000  Level Salt Lake Center
04:03PM 45.2706 -112.4633 278° West 393 452 40,000  Level Salt Lake Center
04:04PM 45.2844 -112.6106 278° West 394 453 40,000  Level Salt Lake Center
04:05PM 45.2994 -112.7828 277° West 395 455 40,000  Level Salt Lake Center
04:06PM 45.3136 -112.9286 278° West 392 451 40,000  Level Salt Lake Center
04:07PM 45.3275 -113.0758 278° West 393 452 40,000  Level Salt Lake Center
04:08PM 45.3417 -113.2503 277° West 397 457 40,000  Level Salt Lake Center
04:09PM 45.3578 -113.4203 278° West 396 456 40,000  Level Salt Lake Center
04:10PM 45.3714 -113.5761 277° West 397 457 40,000  Level Salt Lake Center
04:11PM 45.3856 -113.7219 278° West 400 460 40,000  Level Salt Lake Center
04:12PM 45.4003 -113.8964 277° West 399 459 40,000  Level Salt Lake Center
04:13PM 45.4117 -114.0447 276° West 397 457 40,000  Level Salt Lake Center
04:14PM 45.4242 -114.2172 276° West 395 455 40,000  Level Salt Lake Center
04:15PM 45.4364 -114.3686 277° West 399 459 40,000  Level Salt Lake Center
04:16PM 45.4497 -114.5444 276° West 400 460 40,000  Level Salt Lake Center
04:17PM 45.4611 -114.6964 276° West 403 464 40,000  Level Salt Lake Center
04:18PM 45.4747 -114.8725 276° West 403 464 40,000  Level Salt Lake Center
04:19PM 45.4864 -115.0236 276° West 403 464 40,000  Level Salt Lake Center
04:20PM 45.4969 -115.1997 275° West 403 464 40,000  Level Salt Lake Center
04:21PM 45.5083 -115.3508 276° West 402 463 40,000  Level Salt Lake Center
04:22PM 45.5181 -115.5022 275° West 401 461 40,000  Level Salt Lake Center
04:23PM 45.5300 -115.6800 276° West 404 465 40,000  Level Salt Lake Center
04:24PM 45.5408 -115.8319 276° West 403 464 40,000  Level Salt Lake Center
04:25PM 45.5439 -116.0131 271° West 409 471 40,000  Level Salt Lake Center
04:26PM 45.5458 -116.1639 271° West 404 465 40,000  Level Salt Lake Center
04:27PM 45.5472 -116.3392 271° West 399 459 40,000  Level Salt Lake Center
04:28PM 45.5492 -116.4903 271° West 400 460 40,000  Level Salt Lake Center
04:29PM 45.5506 -116.6692 271° West 404 465 40,000  Level Salt Lake Center
04:30PM 45.5511 -116.8242 270° West 407 468 40,000  Level Salt Lake Center
04:31PM 45.5522 -117.0031 271° West 408 470 40,000  Level Salt Lake Center
04:32PM 45.5536 -117.1564 271° West 406 467 40,000  Level Salt Lake Center
04:34PM 45.5533 -117.3383 270° West 411 473 40,000  Level Salt Lake Center
04:35PM 45.5533 -117.4942 270° West 412 474 40,000  Level Salt Lake Center
04:36PM 45.5544 -117.6506 271° West 414 476 40,000  Level Salt Lake Center
04:37PM 45.5522 -117.8636 269° West 415 478 40,000  Level Seattle Center
04:38PM 45.5519 -118.0278 270° West 415 478 40,000  Level Seattle Center
04:39PM 45.5519 -118.1925 270° West 418 481 40,000  Level Seattle Center
04:40PM 45.5497 -118.3556 269° West 415 478 40,000  Level Seattle Center
04:41PM 45.5492 -118.5517 270° West 415 478 40,000  Level Seattle Center
04:42PM 45.5469 -118.7147 269° West 415 478 40,000  Level Seattle Center
04:43PM 45.5456 -118.8769 269° West 412 474 40,000  Level Seattle Center
04:44PM 45.5431 -119.0403 269° West 412 474 40,000  Level Seattle Center
04:45PM 45.5417 -119.2028 269° West 412 474 40,000 -300 Level Seattle Center
04:46PM 45.5383 -119.3669 268° West 416 479 39,400 -660 Descending Seattle Center
04:47PM 45.5358 -119.5353 269° West 425 489 38,700 -660 Descending Seattle Center
04:48PM 45.5322 -119.7083 268° West 436 502 38,100 -360 Descending Seattle Center
04:49PM 45.5294 -119.8775 269° West 432 497 38,000 -600 Descending Seattle Center
04:50PM 45.5250 -120.0817 268° West 433 498 36,900 -1,620 Descending Seattle Center
04:51PM 45.5217 -120.2464 268° West 423 487 34,800 -1,980 Descending Seattle Center
04:52PM 45.5178 -120.4164 268° West 428 493 32,900 -1,980 Descending Seattle Center
04:53PM 45.5206 -120.5950 271° West 448 516 30,800 -2,160 Descending Seattle Center
04:54PM 45.5228 -120.7697 271° West 445 512 28,600 -2,220 Descending Seattle Center
04:55PM 45.5233 -120.9472 270° West 448 516 26,300 -2,280 Descending Seattle Center
04:56PM 45.5256 -121.1203 271° West 442 509 24,000 -2,460 Descending Seattle Center
04:57PM 45.5258 -121.2881 270° West 429 494 21,400 -3,300 Descending Seattle Center
04:58PM 45.5300 -121.4192 273° West 390 449 18,500 -4,080 Descending Seattle Center
04:59PM 45.5286 -121.5558 269° West 331 381 14,600 -3,840 Descending Seattle Center
05:00PM 45.5289 -121.6919 270° West 311 358 10,400 -2,760 Descending Seattle Center
05:01PM 45.5328 -121.7922 273° West 273 314 9,100 -1,320 Descending Seattle Center
05:02PM 45.5356 -121.8994 272° West 268 308 7,900 -1,320 Descending Seattle Center
05:03PM 45.5225 -122.0036 260° West 235 270 6,500 -960 Descending Seattle Center
05:04PM 45.5125 -122.0914 261° West 222 255 6,000 -540 Descending Seattle Center
05:05PM 45.5003 -122.1797 259° West 230 265 5,500 -600 Descending Seattle Center
05:06PM 45.4908 -122.2608 261° West 225 259 4,900 -900 Descending Seattle Center
05:06PM 45.4861 -122.2936 258° West 226 260 4,200 -1,320 Descending Seattle Center
05:07PM 45.5006 -122.3617 287° West 217 250 3,300 -1,200 Descending Seattle Center
05:08PM 45.5303 -122.4328 301° West 211 243 2,200 -1,080 Descending Seattle Center
05:09PM 45.5556 -122.4933 301° West 166 191 1,200 -840 Descending Seattle Center
05:10PM 45.5806 -122.5561 300° West 178 205 300 -660 Descending Seattle Center
05:12PM 45.5887 -122.5969 298° West  Level Estimated